Lucas, Ohio
Current Conditions -  °F | °C
As of 10:52 AM on Monday 22 Dec 2014 (Local Time) from KMFD Reporting Station
Haze Haze  
Wind Chill: 23°   Ceiling: 4000
Heat Index: 31°   Visibility: 6mi
Dew Point: 27°   Wind: 8mph
Humidity: 85%   Direction: 140°SE
Pressure: 30.04"   Gusts: NA
Location:  40.71°N, 82.42°W
Report Text: KMFD 221552Z 14007KT 6SM BR OVC040 M01/M03 A3004 RMK AO2 SLP187 T10061028
Loading
Personal Weather Stations






























Interactive Weather Map New forecast layout! Learn more

10-Day Weather Forecast

Advertisements
Track Severe Weather on mobile